Time;durP1;ratioP1;P1;durP2;ratioP2;P2;SDS_P1;SDS_P2;PMS_P1;PMS_P2;Temp;Humidity;BMP_temperature;BMP_pressure;BME280_temperature;BME280_humidity;BME280_pressure;Samples;Min_cycle;Max_cycle;Signal;HPM_P1;HPM_P2
2023/07/21 00:00:30;;;;;;;3.80;1.20;;;;;;;15.59;64.42;96833.91;5062208;28;20044;-52
2023/07/21 00:02:57;;;;;;;3.88;1.30;;;;;;;15.57;64.29;96830.66;5059769;28;20059;-52
2023/07/21 00:05:24;;;;;;;2.03;1.10;;;;;;;15.60;64.67;96825.41;5062187;28;20135;-51
2023/07/21 00:07:51;;;;;;;3.47;1.42;;;;;;;15.71;63.65;96825.25;5061454;28;20106;-52
2023/07/21 00:10:17;;;;;;;2.67;1.10;;;;;;;15.68;64.31;96826.66;5062184;28;20102;-53
2023/07/21 00:12:48;;;;;;;3.97;1.30;;;;;;;15.70;63.98;96813.53;5062174;28;20041;-54
2023/07/21 00:15:17;;;;;;;2.53;1.17;;;;;;;15.64;64.60;96811.19;5062993;28;20051;-55
2023/07/21 00:17:47;;;;;;;2.70;1.30;;;;;;;15.56;64.86;96824.38;5062426;28;20037;-52
2023/07/21 00:20:19;;;;;;;2.45;1.10;;;;;;;15.55;65.31;96820.03;5061091;28;20056;-55
2023/07/21 00:22:46;;;;;;;4.53;1.50;;;;;;;15.55;65.29;96811.84;5060606;28;20066;-55
2023/07/21 00:25:13;;;;;;;2.83;1.40;;;;;;;15.54;65.07;96815.72;5062046;28;20111;-53
2023/07/21 00:27:41;;;;;;;2.75;1.55;;;;;;;15.57;64.98;96812.38;5060941;28;20032;-53
2023/07/21 00:30:08;;;;;;;2.83;1.23;;;;;;;15.61;64.49;96807.13;5065111;28;20526;-55
2023/07/21 00:32:36;;;;;;;4.00;1.25;;;;;;;15.53;64.80;96818.72;5065217;28;20410;-50
2023/07/21 00:35:08;;;;;;;3.15;1.20;;;;;;;15.50;64.91;96820.13;5061494;28;20572;-51
2023/07/21 00:37:35;;;;;;;2.75;1.25;;;;;;;15.42;65.31;96804.44;5064468;28;20051;-51
2023/07/21 00:40:05;;;;;;;5.00;1.63;;;;;;;15.30;65.70;96811.16;5063859;28;20058;-49
2023/07/21 00:42:31;;;;;;;4.22;1.27;;;;;;;15.15;66.60;96808.69;5064964;28;20040;-52
2023/07/21 00:44:58;;;;;;;5.25;1.42;;;;;;;15.21;66.67;96804.75;5061383;28;20032;-55
2023/07/21 00:47:25;;;;;;;3.20;1.27;;;;;;;15.20;66.25;96809.44;5066161;28;20032;-54
2023/07/21 00:49:52;;;;;;;2.67;1.17;;;;;;;15.25;66.18;96796.81;5063685;28;20438;-52
2023/07/21 00:52:19;;;;;;;2.45;1.20;;;;;;;15.32;66.13;96799.97;5065219;28;20123;-53
2023/07/21 00:54:47;;;;;;;5.45;1.42;;;;;;;15.39;65.91;96800.41;5063130;28;20072;-53
2023/07/21 00:57:20;;;;;;;5.13;1.40;;;;;;;15.43;65.51;96793.25;5065045;28;20037;-53
2023/07/21 00:59:47;;;;;;;3.58;1.48;;;;;;;15.51;65.21;96799.91;5064078;28;20037;-52
2023/07/21 01:02:13;;;;;;;4.97;1.20;;;;;;;15.55;65.62;96800.16;5065273;28;20037;-54
2023/07/21 01:04:40;;;;;;;4.15;1.35;;;;;;;15.51;65.27;96799.91;5064551;28;20053;-53
2023/07/21 01:07:09;;;;;;;3.03;1.15;;;;;;;15.45;65.47;96796.47;5063881;28;20040;-53
2023/07/21 01:09:36;;;;;;;3.05;1.50;;;;;;;15.52;65.26;96787.09;5064659;28;20124;-52
2023/07/21 01:12:05;;;;;;;2.33;1.20;;;;;;;15.55;65.74;96781.06;5064874;28;20043;-52
2023/07/21 01:14:33;;;;;;;3.40;1.20;;;;;;;15.53;65.81;96780.53;5063024;28;20044;-53
2023/07/21 01:17:02;;;;;;;5.40;1.23;;;;;;;15.55;65.27;96778.31;5061593;28;20032;-54
2023/07/21 01:19:30;;;;;;;4.78;1.30;;;;;;;15.58;65.38;96783.16;5062982;28;20045;-51
2023/07/21 01:22:10;;;;;;;2.63;1.25;;;;;;;15.57;65.01;96774.19;5050547;28;20040;-54
2023/07/21 01:24:49;;;;;;;4.65;1.30;;;;;;;15.46;65.47;96773.56;5062713;28;20124;-55
2023/07/21 01:27:22;;;;;;;3.90;1.42;;;;;;;15.32;65.85;96776.22;5062687;28;20037;-54
2023/07/21 01:29:52;;;;;;;4.55;1.35;;;;;;;15.37;65.88;96772.59;5062574;28;20494;-53
2023/07/21 01:32:22;;;;;;;3.47;1.35;;;;;;;15.27;66.17;96770.03;5066444;28;20542;-56
2023/07/21 01:34:49;;;;;;;3.85;1.33;;;;;;;15.29;66.16;96771.38;5062183;28;20093;-53
2023/07/21 01:37:18;;;;;;;1.80;1.10;;;;;;;15.24;66.44;96762.44;5064353;28;20057;-51
2023/07/21 01:39:46;;;;;;;3.97;1.20;;;;;;;15.22;66.74;96768.19;5061916;28;20659;-49
2023/07/21 01:42:13;;;;;;;3.70;1.45;;;;;;;15.19;66.82;96764.16;5063516;28;20048;-51
2023/07/21 01:44:41;;;;;;;3.00;1.50;;;;;;;15.30;66.10;96758.53;5059903;28;20503;-53
2023/07/21 01:47:07;;;;;;;4.45;1.58;;;;;;;15.24;66.45;96765.19;5065537;28;20037;-53
2023/07/21 01:49:34;;;;;;;3.80;1.30;;;;;;;15.25;67.01;96764.88;5061813;28;20036;-53
2023/07/21 01:52:03;;;;;;;4.47;1.40;;;;;;;15.17;67.65;96762.84;5062387;28;20052;-54
2023/07/21 01:54:36;;;;;;;3.60;1.65;;;;;;;15.11;68.39;96766.75;5063844;28;20033;-54
2023/07/21 01:57:05;;;;;;;1.90;1.00;;;;;;;15.02;69.14;96755.69;5062178;28;20044;-54
2023/07/21 01:59:31;;;;;;;4.45;2.55;;;;;;;15.03;69.16;96763.59;5063784;28;20078;-53
2023/07/21 02:01:59;;;;;;;2.50;1.10;;;;;;;15.00;68.97;96761.44;5062762;28;20151;-48
2023/07/21 02:04:26;;;;;;;3.08;1.40;;;;;;;14.98;68.91;96758.22;5062970;28;20068;-54
2023/07/21 02:06:52;;;;;;;3.75;1.48;;;;;;;14.94;68.58;96755.28;5063854;28;20427;-55
2023/07/21 02:09:20;;;;;;;2.67;1.38;;;;;;;15.02;68.57;96756.53;5063770;28;20041;-53
2023/07/21 02:11:48;;;;;;;2.58;1.27;;;;;;;15.10;68.19;96751.50;5063392;28;20119;-55
2023/07/21 02:14:45;;;;;;;3.88;1.55;;;;;;;15.22;67.68;96740.94;5054336;28;20556;-53
2023/07/21 02:17:11;;;;;;;2.15;1.10;;;;;;;15.23;67.02;96745.28;5064086;28;20543;-53
2023/07/21 02:19:38;;;;;;;3.00;1.30;;;;;;;15.29;66.39;96748.75;5062446;28;20050;-53
2023/07/21 02:22:06;;;;;;;2.97;1.40;;;;;;;15.33;66.50;96747.03;5061298;28;20036;-52
2023/07/21 02:24:32;;;;;;;3.13;1.20;;;;;;;15.33;66.88;96749.75;5061643;28;20040;-53
2023/07/21 02:27:01;;;;;;;4.90;1.30;;;;;;;15.32;67.30;96756.31;5063181;28;20037;-54
2023/07/21 02:29:28;;;;;;;3.00;1.30;;;;;;;15.36;66.73;96751.09;5063804;28;20048;-53
2023/07/21 02:31:55;;;;;;;2.40;1.10;;;;;;;15.36;67.13;96749.16;5061702;28;20052;-55
2023/07/21 02:34:22;;;;;;;2.53;1.10;;;;;;;15.37;66.76;96741.78;5063095;28;20044;-53
2023/07/21 02:36:49;;;;;;;3.17;1.33;;;;;;;15.39;67.33;96754.03;5063444;28;20094;-51
2023/07/21 02:39:15;;;;;;;3.47;1.45;;;;;;;15.29;67.80;96748.75;5062428;28;20139;-53
2023/07/21 02:41:42;;;;;;;3.28;1.30;;;;;;;15.19;68.35;96744.28;5065234;28;20585;-52
2023/07/21 02:44:09;;;;;;;2.97;1.30;;;;;;;15.23;68.31;96731.66;5062603;28;20036;-53
2023/07/21 02:46:36;;;;;;;2.85;1.20;;;;;;;15.27;68.04;96735.41;5062883;28;20044;-54
2023/07/21 02:49:03;;;;;;;3.63;1.20;;;;;;;15.22;68.89;96730.00;5061727;28;20192;-52
2023/07/21 02:51:29;;;;;;;3.65;1.23;;;;;;;15.08;69.25;96736.25;5061420;28;20079;-54
2023/07/21 02:53:56;;;;;;;3.83;1.35;;;;;;;15.07;68.69;96731.06;5061882;28;20116;-51
2023/07/21 02:56:23;;;;;;;4.97;1.60;;;;;;;15.08;68.69;96721.81;5058197;28;20446;-54
2023/07/21 02:58:58;;;;;;;2.72;1.40;;;;;;;15.02;69.04;96722.97;5061379;28;20036;-55
2023/07/21 03:01:24;;;;;;;3.17;1.58;;;;;;;15.03;69.43;96716.41;5062111;28;20094;-53
2023/07/21 03:03:54;;;;;;;2.90;1.30;;;;;;;14.92;70.29;96727.50;5060197;28;20055;-54
2023/07/21 03:06:21;;;;;;;3.17;1.40;;;;;;;14.78;71.10;96732.09;5062030;28;20593;-51
2023/07/21 03:08:52;;;;;;;3.15;1.50;;;;;;;14.74;71.46;96734.53;5060034;28;20044;-47
2023/07/21 03:11:22;;;;;;;2.88;1.52;;;;;;;14.63;72.22;96733.09;5062170;28;20044;-55
2023/07/21 03:14:02;;;;;;;2.45;1.10;;;;;;;14.57;72.21;96733.13;5060453;28;20032;-55
2023/07/21 03:16:31;;;;;;;4.05;1.30;;;;;;;14.64;71.71;96731.97;5060022;28;20055;-51
2023/07/21 03:18:58;;;;;;;3.80;1.50;;;;;;;14.79;70.92;96731.78;5059418;28;20716;-54
2023/07/21 03:21:27;;;;;;;3.22;1.30;;;;;;;14.88;70.45;96734.66;5062112;28;20044;-52
2023/07/21 03:23:55;;;;;;;4.25;1.85;;;;;;;14.85;71.14;96729.78;5059839;28;20446;-53
2023/07/21 03:26:27;;;;;;;3.67;1.30;;;;;;;14.82;70.33;96736.63;5061702;28;20083;-53
2023/07/21 03:28:57;;;;;;;3.60;1.47;;;;;;;14.89;70.29;96736.25;5060282;28;20044;-53
2023/07/21 03:31:26;;;;;;;3.20;1.50;;;;;;;14.88;70.21;96731.91;5073248;28;20037;-53
2023/07/21 03:34:00;;;;;;;4.20;1.40;;;;;;;14.84;70.20;96728.16;5059165;28;20048;-50
2023/07/21 03:36:29;;;;;;;2.83;1.20;;;;;;;14.87;69.65;96730.31;5060697;28;20037;-51
2023/07/21 03:38:57;;;;;;;6.28;1.80;;;;;;;14.92;69.37;96730.22;5057316;28;20040;-50
2023/07/21 03:41:24;;;;;;;2.55;1.17;;;;;;;14.93;69.26;96722.88;5061786;28;20131;-51
2023/07/21 03:43:51;;;;;;;3.80;1.58;;;;;;;14.95;70.12;96720.63;5060261;28;20048;-55
2023/07/21 03:46:19;;;;;;;5.03;1.40;;;;;;;14.97;70.29;96723.91;5061542;28;20118;-50
2023/07/21 03:49:11;;;;;;;3.00;1.65;;;;;;;14.95;69.90;96726.91;5060281;28;20253;-55
2023/07/21 03:51:41;;;;;;;3.30;1.40;;;;;;;15.03;69.96;96721.88;5061334;28;20075;-55
2023/07/21 03:54:12;;;;;;;2.58;1.35;;;;;;;14.86;71.56;96723.25;5060478;28;20048;-53
2023/07/21 03:56:39;;;;;;;3.95;1.77;;;;;;;14.77;71.66;96722.28;5064182;28;20056;-51
2023/07/21 03:59:06;;;;;;;2.38;1.27;;;;;;;14.62;72.96;96723.28;5059091;28;20585;-51
2023/07/21 04:01:33;;;;;;;3.40;1.50;;;;;;;14.54;72.97;96722.03;5058477;28;20044;-54
2023/07/21 04:03:59;;;;;;;5.88;1.70;;;;;;;14.55;73.11;96723.63;5061262;28;20052;-55
2023/07/21 04:06:26;;;;;;;3.35;1.20;;;;;;;14.62;72.56;96726.00;5064205;28;20051;-53
2023/07/21 04:08:53;;;;;;;3.80;1.55;;;;;;;14.74;72.00;96729.09;5062237;28;20037;-53
2023/07/21 04:11:21;;;;;;;3.88;1.33;;;;;;;14.83;71.77;96727.34;5064702;28;20048;-47
2023/07/21 04:13:47;;;;;;;3.35;1.40;;;;;;;14.84;71.89;96720.00;5062895;28;20558;-52
2023/07/21 04:16:14;;;;;;;3.30;1.42;;;;;;;14.90;71.47;96720.72;5063130;28;20201;-52
2023/07/21 04:18:40;;;;;;;2.53;1.20;;;;;;;14.98;70.52;96724.69;5061130;28;21190;-49
2023/07/21 04:21:07;;;;;;;3.42;1.27;;;;;;;14.94;71.27;96724.47;5062513;28;20576;-52
2023/07/21 04:23:34;;;;;;;4.07;1.60;;;;;;;14.96;70.96;96733.16;5063074;28;20429;-50
2023/07/21 04:26:03;;;;;;;3.38;1.50;;;;;;;15.07;70.42;96725.63;5060640;28;20040;-49
2023/07/21 04:28:31;;;;;;;4.03;1.30;;;;;;;15.16;70.13;96723.88;5061047;28;20051;-53
2023/07/21 04:30:57;;;;;;;4.35;1.60;;;;;;;15.21;69.37;96722.94;5061740;28;20131;-53
2023/07/21 04:33:25;;;;;;;3.03;1.50;;;;;;;15.37;68.76;96720.75;5060836;28;20139;-54
2023/07/21 04:35:52;;;;;;;3.90;1.55;;;;;;;15.54;67.48;96719.38;5062039;28;20646;-55
2023/07/21 04:38:22;;;;;;;4.93;1.85;;;;;;;15.66;66.77;96724.38;5062433;28;20047;-51
2023/07/21 04:40:54;;;;;;;4.13;1.25;;;;;;;15.76;66.89;96724.19;5061488;28;20465;-55
2023/07/21 04:43:21;;;;;;;3.13;1.40;;;;;;;15.78;67.00;96721.16;5061123;28;20048;-51
2023/07/21 04:45:49;;;;;;;2.42;1.10;;;;;;;15.83;66.81;96715.59;5062089;28;20060;-54
2023/07/21 04:48:26;;;;;;;3.20;1.50;;;;;;;15.83;67.40;96723.78;5062010;28;20036;-54
2023/07/21 04:50:53;;;;;;;3.53;1.50;;;;;;;15.88;67.10;96720.94;5062124;28;20045;-54
2023/07/21 04:53:20;;;;;;;7.65;2.13;;;;;;;15.85;67.60;96724.31;5063170;28;20063;-52
2023/07/21 04:55:46;;;;;;;3.13;1.40;;;;;;;15.80;68.10;96729.84;5061446;28;20415;-53
2023/07/21 04:58:14;;;;;;;5.40;1.80;;;;;;;15.85;67.68;96730.56;5062863;28;20071;-51
2023/07/21 05:00:40;;;;;;;3.17;1.50;;;;;;;15.90;67.28;96726.09;5065312;28;20446;-54
2023/07/21 05:03:07;;;;;;;8.60;1.70;;;;;;;15.92;67.19;96732.88;5062258;28;20047;-51
2023/07/21 05:05:34;;;;;;;3.95;1.48;;;;;;;16.08;66.16;96722.50;5063471;28;20067;-53
2023/07/21 05:08:01;;;;;;;3.85;1.67;;;;;;;16.12;65.83;96725.44;5060712;28;20045;-52
2023/07/21 05:10:28;;;;;;;3.65;1.40;;;;;;;16.20;65.04;96727.47;5060846;28;20052;-52
2023/07/21 05:12:56;;;;;;;3.38;1.42;;;;;;;16.29;65.27;96721.28;5060045;28;20166;-53
2023/07/21 05:16:00;;;;;;;7.03;1.60;;;;;;;16.31;65.38;96728.06;5051935;28;20081;-51
2023/07/21 05:18:53;;;;;;;4.78;1.65;;;;;;;16.44;65.09;96722.88;5060646;28;20063;-52
2023/07/21 05:21:42;;;;;;;5.85;1.85;;;;;;;16.51;64.81;96726.78;5061265;28;20051;-55
2023/07/21 05:24:26;;;;;;;3.22;1.38;;;;;;;16.62;64.10;96723.84;5060360;28;20139;-55
2023/07/21 05:26:52;;;;;;;4.32;1.40;;;;;;;16.68;63.43;96725.34;5062060;28;20040;-55
2023/07/21 05:29:34;;;;;;;3.75;1.35;;;;;;;16.79;63.82;96731.38;5061851;28;20048;-55
2023/07/21 05:32:03;;;;;;;4.03;1.52;;;;;;;16.89;63.79;96727.63;5061245;28;20040;-56
2023/07/21 05:34:32;;;;;;;;;;;;;;;16.96;62.76;96724.44;5061490;28;20048;-55
2023/07/21 05:37:02;;;;;;;2.60;1.20;;;;;;;17.05;62.58;96721.78;5060730;28;19921;-54
2023/07/21 05:39:29;;;;;;;4.95;1.92;;;;;;;17.17;61.78;96724.78;5062569;28;20083;-54
2023/07/21 05:41:57;;;;;;;3.85;1.80;;;;;;;17.32;61.07;96723.59;5059520;28;20049;-51
2023/07/21 05:44:27;;;;;;;3.38;1.50;;;;;;;17.48;61.01;96717.75;5060000;28;20135;-52
2023/07/21 05:46:53;;;;;;;4.22;1.60;;;;;;;17.57;61.06;96717.81;5059010;28;20047;-54
2023/07/21 05:49:21;;;;;;;3.53;1.40;;;;;;;17.62;60.16;96715.72;5061778;28;20041;-54
2023/07/21 05:51:48;;;;;;;4.25;1.70;;;;;;;17.64;60.60;96718.13;5061494;28;20052;-52
2023/07/21 05:54:21;;;;;;;4.45;1.40;;;;;;;17.79;59.74;96715.00;5060790;28;20043;-54
2023/07/21 05:56:48;;;;;;;3.67;1.35;;;;;;;17.94;58.58;96713.78;5062006;28;20511;-53
2023/07/21 05:59:26;;;;;;;4.57;1.40;;;;;;;18.03;58.24;96716.53;5058145;28;20043;-53
2023/07/21 06:01:58;;;;;;;6.28;1.40;;;;;;;18.02;57.68;96719.59;5059763;28;20053;-54
2023/07/21 06:04:25;;;;;;;5.18;1.40;;;;;;;18.18;57.26;96722.75;5059858;28;20577;-51
2023/07/21 06:07:12;;;;;;;7.03;1.48;;;;;;;18.37;57.13;96716.97;5060535;28;20057;-53
2023/07/21 06:09:58;;;;;;;5.03;1.45;;;;;;;18.49;56.70;96726.50;5060161;28;20043;-51
2023/07/21 06:12:48;;;;;;;2.85;1.50;;;;;;;18.46;56.62;96723.28;5057493;28;20198;-53
2023/07/21 06:15:20;;;;;;;2.85;1.10;;;;;;;18.71;56.05;96722.81;5060762;28;20033;-54
2023/07/21 06:17:58;;;;;;;7.35;2.00;;;;;;;18.89;55.28;96733.78;5059896;28;20135;-51
2023/07/21 06:20:27;;;;;;;3.10;1.40;;;;;;;19.06;54.53;96731.09;5059517;28;20052;-55
2023/07/21 06:22:54;;;;;;;4.60;1.40;;;;;;;19.28;55.18;96743.03;5061111;28;20052;-53
2023/07/21 06:25:22;;;;;;;3.85;1.27;;;;;;;19.40;51.87;96736.06;5062125;28;20048;-54
2023/07/21 06:27:54;;;;;;;4.80;1.45;;;;;;;19.43;52.48;96735.41;5061646;28;20105;-54
2023/07/21 06:30:22;;;;;;;3.15;1.33;;;;;;;19.42;50.32;96739.28;5061876;28;20064;-54
2023/07/21 06:32:50;;;;;;;2.58;1.10;;;;;;;19.61;49.55;96747.97;5058850;28;20041;-57
2023/07/21 06:35:33;;;;;;;3.63;1.33;;;;;;;19.67;49.09;96739.53;5060379;28;20146;-59
2023/07/21 06:38:19;;;;;;;3.20;1.10;;;;;;;19.56;49.84;96745.41;5060682;28;20122;-59
2023/07/21 06:40:54;;;;;;;9.25;1.30;;;;;;;19.55;49.20;96743.78;5058289;28;20028;-58
2023/07/21 06:43:32;;;;;;;2.78;1.20;;;;;;;19.45;49.70;96742.19;5060296;28;20044;-58
2023/07/21 06:46:10;;;;;;;2.72;1.15;;;;;;;19.54;49.36;96744.94;5058176;28;20561;-58
2023/07/21 06:48:45;;;;;;;4.00;1.17;;;;;;;19.63;49.17;96748.44;5060599;28;20041;-58
2023/07/21 06:51:21;;;;;;;6.97;1.20;;;;;;;19.61;47.97;96752.66;5059192;28;20044;-59
2023/07/21 06:53:49;;;;;;;3.05;1.30;;;;;;;19.49;48.75;96751.38;5059784;28;20044;-59
2023/07/21 06:56:16;;;;;;;3.30;1.20;;;;;;;19.55;48.74;96752.03;5059109;28;20054;-58
2023/07/21 06:58:43;;;;;;;3.38;1.10;;;;;;;19.53;48.44;96754.28;5059838;28;20044;-58
2023/07/21 07:01:10;;;;;;;4.35;1.30;;;;;;;19.67;48.46;96750.53;5059008;28;20040;-58
2023/07/21 07:03:36;;;;;;;3.75;1.20;;;;;;;19.90;48.53;96753.84;5060655;28;20073;-57
2023/07/21 07:06:03;;;;;;;4.70;2.22;;;;;;;19.98;48.09;96752.22;5056662;28;20051;-58
2023/07/21 07:08:30;;;;;;;3.70;1.15;;;;;;;19.76;48.65;96743.09;5059746;28;20032;-58
2023/07/21 07:10:56;;;;;;;3.03;1.23;;;;;;;19.75;48.99;96750.50;5059620;28;20063;-58
2023/07/21 07:13:23;;;;;;;3.08;1.27;;;;;;;19.96;49.18;96746.22;5060455;28;20044;-57
2023/07/21 07:15:50;;;;;;;4.85;1.60;;;;;;;19.85;49.29;96745.78;5058924;28;20052;-58
2023/07/21 07:18:16;;;;;;;3.85;1.45;;;;;;;20.00;49.39;96750.78;5060328;28;20071;-57
2023/07/21 07:20:50;;;;;;;5.13;1.27;;;;;;;20.08;48.90;96749.13;5060270;28;20533;-59
2023/07/21 07:23:18;;;;;;;3.20;1.17;;;;;;;19.92;48.85;96748.84;5060672;28;20051;-58
2023/07/21 07:25:49;;;;;;;4.57;1.83;;;;;;;20.12;49.03;96749.28;5059285;28;20430;-58
2023/07/21 07:28:18;;;;;;;3.00;1.05;;;;;;;19.97;48.69;96747.88;5058021;28;20044;-58
2023/07/21 07:30:45;;;;;;;3.53;1.15;;;;;;;20.00;48.45;96756.28;5059305;28;20041;-56
2023/07/21 07:33:14;;;;;;;6.88;1.52;;;;;;;20.03;48.28;96754.81;5059486;28;20040;-59
2023/07/21 07:35:52;;;;;;;14.18;2.85;;;;;;;19.96;49.07;96765.47;5059753;28;20496;-59
2023/07/21 07:38:26;;;;;;;7.10;1.48;;;;;;;20.19;47.35;96755.06;5059015;28;20048;-58
2023/07/21 07:40:53;;;;;;;2.38;1.02;;;;;;;20.59;45.97;96764.06;5060121;28;20033;-59
2023/07/21 07:43:20;;;;;;;2.92;1.20;;;;;;;20.65;44.66;96762.75;5060346;28;20037;-58
2023/07/21 07:45:47;;;;;;;3.08;1.23;;;;;;;20.94;45.11;96760.31;5059915;28;20047;-58
2023/07/21 07:48:15;;;;;;;2.72;1.10;;;;;;;20.74;44.33;96762.66;5057336;28;20059;-58
2023/07/21 07:50:42;;;;;;;3.88;1.60;;;;;;;20.50;45.90;96761.38;5058917;28;20040;-58
2023/07/21 07:53:09;;;;;;;2.45;0.98;;;;;;;20.51;45.07;96765.72;5059287;28;20556;-57
2023/07/21 07:55:38;;;;;;;3.38;1.25;;;;;;;20.39;45.52;96764.50;5059793;28;20439;-58
2023/07/21 07:58:06;;;;;;;3.38;1.20;;;;;;;20.38;46.18;96767.59;5059752;28;20344;-58
2023/07/21 08:00:37;;;;;;;5.40;1.17;;;;;;;20.66;45.23;96765.16;5060197;28;20039;-57
2023/07/21 08:03:06;;;;;;;2.70;1.20;;;;;;;20.85;45.23;96766.66;5057417;28;20725;-59
2023/07/21 08:05:34;;;;;;;4.05;1.33;;;;;;;21.03;45.23;96774.81;5059849;28;20524;-58
2023/07/21 08:08:02;;;;;;;3.50;1.17;;;;;;;21.29;44.96;96782.84;5059221;28;20046;-56
2023/07/21 08:10:30;;;;;;;4.78;1.20;;;;;;;21.12;43.18;96775.53;5060547;28;20036;-57
2023/07/21 08:12:58;;;;;;;4.88;1.25;;;;;;;21.04;44.05;96777.22;5058595;28;20053;-56
2023/07/21 08:15:25;;;;;;;3.47;1.20;;;;;;;20.87;42.18;96780.91;5059864;28;20041;-58
2023/07/21 08:17:52;;;;;;;3.20;1.15;;;;;;;20.85;41.97;96766.66;5057977;28;20049;-57
2023/07/21 08:20:20;;;;;;;3.55;1.20;;;;;;;21.09;41.61;96775.41;5059577;28;20036;-59
2023/07/21 08:22:53;;;;;;;2.35;1.00;;;;;;;21.51;40.84;96767.09;5060011;28;20518;-62
2023/07/21 08:25:19;;;;;;;2.35;1.00;;;;;;;21.80;40.71;96764.56;5058620;28;20036;-55
2023/07/21 08:27:46;;;;;;;3.17;1.30;;;;;;;21.55;39.74;96776.31;5060083;28;20048;-58
2023/07/21 08:30:14;;;;;;;2.00;0.90;;;;;;;21.82;39.63;96770.56;5058982;28;20045;-59
2023/07/21 08:32:42;;;;;;;2.25;0.90;;;;;;;21.91;39.43;96774.00;5058300;28;20098;-57
2023/07/21 08:35:09;;;;;;;2.35;0.90;;;;;;;21.76;40.22;96769.16;5058471;28;20147;-59
2023/07/21 08:37:38;;;;;;;4.45;1.00;;;;;;;21.88;39.51;96769.19;5059163;28;20072;-58
2023/07/21 08:40:08;;;;;;;2.95;1.00;;;;;;;21.97;39.19;96774.59;5059534;28;20118;-59
2023/07/21 08:42:37;;;;;;;4.07;1.10;;;;;;;22.29;39.12;96779.59;5058934;28;20044;-56
2023/07/21 08:45:04;;;;;;;4.22;0.90;;;;;;;22.27;38.28;96779.09;5059249;28;20040;-59
2023/07/21 08:47:32;;;;;;;2.80;1.00;;;;;;;22.25;37.78;96775.91;5059554;28;20041;-59
2023/07/21 08:49:59;;;;;;;7.50;1.20;;;;;;;22.17;39.26;96783.94;5060776;28;20504;-59
2023/07/21 08:52:26;;;;;;;3.08;1.10;;;;;;;22.17;37.57;96781.16;5061745;28;20789;-59
2023/07/21 08:54:53;;;;;;;2.67;1.20;;;;;;;22.26;37.34;96778.28;5062732;28;20559;-55
2023/07/21 08:57:20;;;;;;;3.25;1.40;;;;;;;22.19;37.50;96780.84;5063049;28;20036;-57
2023/07/21 08:59:47;;;;;;;2.38;1.00;;;;;;;22.37;37.05;96780.59;5061714;28;20119;-59
2023/07/21 09:02:13;;;;;;;2.85;1.10;;;;;;;22.26;37.21;96783.81;5059562;28;20051;-58
2023/07/21 09:04:43;;;;;;;3.67;0.90;;;;;;;22.21;37.34;96795.88;5062199;28;20032;-58
2023/07/21 09:07:11;;;;;;;1.77;0.90;;;;;;;22.28;37.90;96789.78;5062011;28;20052;-56
2023/07/21 09:09:37;;;;;;;5.40;1.77;;;;;;;22.03;38.92;96775.16;5061799;28;20049;-59
2023/07/21 09:12:08;;;;;;;4.13;1.20;;;;;;;21.95;38.55;96779.63;5062418;28;20098;-57
2023/07/21 09:14:39;;;;;;;;;;;;;;;21.90;38.51;96788.94;5063709;28;20067;-58
2023/07/21 09:17:07;;;;;;;6.65;1.35;;;;;;;21.89;39.08;96789.28;5062943;28;19928;-58
2023/07/21 09:19:42;;;;;;;4.78;1.40;;;;;;;21.69;39.06;96794.47;5062096;28;20070;-58
2023/07/21 09:22:09;;;;;;;6.40;1.42;;;;;;;21.91;39.16;96792.50;5062277;28;20051;-59
2023/07/21 09:24:48;;;;;;;1.98;0.88;;;;;;;22.01;38.68;96794.81;5063644;28;20054;-58
2023/07/21 09:27:17;;;;;;;2.05;0.98;;;;;;;21.92;38.73;96783.06;5061653;28;20115;-57
2023/07/21 09:29:44;;;;;;;2.92;1.10;;;;;;;22.09;38.45;96793.09;5061746;28;20037;-56
2023/07/21 09:32:17;;;;;;;4.75;1.00;;;;;;;21.80;37.78;96787.44;5062187;28;20036;-57
2023/07/21 09:35:01;;;;;;;5.70;1.60;;;;;;;22.21;37.38;96787.59;5061811;28;20491;-58
2023/07/21 09:37:32;;;;;;;3.50;1.25;;;;;;;22.29;35.09;96783.13;5061996;28;20550;-58
2023/07/21 09:40:00;;;;;;;1.63;0.80;;;;;;;22.33;36.23;96781.28;5062175;28;20055;-58
2023/07/21 09:42:28;;;;;;;3.35;1.10;;;;;;;22.61;36.75;96777.06;5061228;28;20621;-58
2023/07/21 09:44:57;;;;;;;4.38;1.10;;;;;;;22.85;35.37;96780.94;5060680;28;20064;-56
2023/07/21 09:47:24;;;;;;;2.00;0.93;;;;;;;22.67;35.56;96783.94;5062421;28;20451;-59
2023/07/21 09:49:57;;;;;;;2.57;1.10;;;;;;;22.25;35.88;96781.41;5063397;28;20045;-56
2023/07/21 09:52:25;;;;;;;3.65;1.10;;;;;;;21.76;36.68;96772.72;5060793;28;20263;-58
2023/07/21 09:55:13;;;;;;;2.47;1.13;;;;;;;21.81;37.14;96775.25;5061344;28;20040;-58
2023/07/21 09:57:43;;;;;;;3.72;1.10;;;;;;;21.92;37.25;96775.63;5060423;28;20695;-58
2023/07/21 10:00:13;;;;;;;2.92;1.05;;;;;;;22.09;37.66;96768.28;5061244;28;20037;-59
2023/07/21 10:02:42;;;;;;;6.30;1.05;;;;;;;22.26;38.09;96752.69;5061904;28;20416;-59
2023/07/21 10:05:10;;;;;;;3.38;1.00;;;;;;;22.47;36.55;96758.06;5061154;28;20539;-58
2023/07/21 10:07:39;;;;;;;3.05;1.20;;;;;;;22.31;37.29;96752.44;5060164;28;20467;-57
2023/07/21 10:10:07;;;;;;;2.65;1.10;;;;;;;22.46;37.69;96756.47;5061497;28;20043;-57
2023/07/21 10:12:55;;;;;;;2.22;1.00;;;;;;;22.68;37.08;96740.59;5059977;28;20597;-56
2023/07/21 10:15:33;;;;;;;3.75;1.10;;;;;;;22.85;37.20;96745.84;5060789;28;20036;-59
2023/07/21 10:18:00;;;;;;;2.35;0.77;;;;;;;22.97;36.30;96753.28;5060588;28;20064;-59
2023/07/21 10:20:42;;;;;;;4.22;1.00;;;;;;;23.09;36.94;96752.47;5061588;28;20536;-58
2023/07/21 10:23:11;;;;;;;3.13;1.13;;;;;;;23.38;37.01;96742.28;5060726;28;20068;-60
2023/07/21 10:25:58;;;;;;;5.10;1.13;;;;;;;23.56;36.24;96747.47;5058429;28;20046;-58
2023/07/21 10:28:37;;;;;;;4.03;0.98;;;;;;;23.55;36.64;96739.53;5060042;28;20110;-56
2023/07/21 10:31:36;;;;;;;3.05;1.23;;;;;;;23.54;36.65;96740.72;5059814;28;20051;-58
2023/07/21 10:34:07;;;;;;;4.40;1.25;;;;;;;23.32;36.89;96748.34;5059223;28;20076;-57
2023/07/21 10:36:52;;;;;;;2.35;1.23;;;;;;;23.40;36.31;96760.44;5060704;28;20044;-58
2023/07/21 10:39:24;;;;;;;3.10;1.20;;;;;;;23.30;36.80;96756.19;5061547;28;20043;-56
2023/07/21 10:41:53;;;;;;;3.50;1.67;;;;;;;23.04;37.22;96762.97;5059457;28;20044;-55
2023/07/21 10:44:20;;;;;;;4.53;1.05;;;;;;;23.21;37.16;96759.91;5059972;28;20044;-58
2023/07/21 10:46:49;;;;;;;2.72;1.65;;;;;;;23.26;37.06;96762.41;5060513;28;20049;-58
2023/07/21 10:49:17;;;;;;;2.25;1.02;;;;;;;23.21;37.05;96756.34;5061368;28;20060;-55
2023/07/21 10:51:46;;;;;;;3.17;1.10;;;;;;;23.28;37.15;96761.28;5061419;28;20037;-54
2023/07/21 10:54:14;;;;;;;6.97;1.23;;;;;;;23.46;36.92;96768.13;5058423;28;20056;-57
2023/07/21 10:56:41;;;;;;;2.55;1.20;;;;;;;23.09;36.82;96758.00;5059509;28;20068;-56
2023/07/21 10:59:09;;;;;;;3.05;1.13;;;;;;;23.47;36.72;96761.44;5061937;28;20032;-54
2023/07/21 11:01:50;;;;;;;2.55;1.17;;;;;;;23.04;36.60;96761.00;5060117;28;20044;-57
2023/07/21 11:04:19;;;;;;;2.75;1.02;;;;;;;23.60;36.76;96773.25;5059114;28;20045;-55
2023/07/21 11:06:51;;;;;;;5.38;1.00;;;;;;;23.92;36.84;96766.97;5058451;28;20041;-58
2023/07/21 11:09:19;;;;;;;4.70;1.40;;;;;;;24.06;35.10;96757.44;5060454;28;20041;-57
2023/07/21 11:11:48;;;;;;;2.67;1.13;;;;;;;24.17;34.42;96755.75;5060572;28;20048;-58
2023/07/21 11:14:26;;;;;;;3.00;1.25;;;;;;;24.26;35.14;96744.53;5058375;28;20044;-57
2023/07/21 11:16:57;;;;;;;3.10;1.00;;;;;;;24.17;35.88;96752.97;5060149;28;20044;-56
2023/07/21 11:19:27;;;;;;;7.22;1.42;;;;;;;24.20;34.33;96759.75;5059201;28;20047;-56
2023/07/21 11:21:54;;;;;;;4.25;1.20;;;;;;;24.44;34.61;96755.19;5060723;28;20075;-57
2023/07/21 11:24:29;;;;;;;5.15;1.15;;;;;;;24.48;34.14;96762.44;5058250;28;20129;-56
2023/07/21 11:27:05;;;;;;;2.85;1.27;;;;;;;24.86;34.46;96762.91;5060286;28;20048;-57
2023/07/21 11:29:43;;;;;;;5.70;1.38;;;;;;;24.57;35.23;96772.50;5061290;28;20031;-56
2023/07/21 11:32:19;;;;;;;3.85;1.30;;;;;;;24.22;35.38;96761.03;5058205;28;20047;-56
2023/07/21 11:34:46;;;;;;;4.35;1.48;;;;;;;24.64;35.35;96759.63;5058136;28;20520;-57
2023/07/21 11:37:14;;;;;;;4.40;1.63;;;;;;;24.70;34.13;96760.16;5059699;28;20048;-56
2023/07/21 11:39:41;;;;;;;3.85;1.10;;;;;;;24.37;34.59;96758.59;5062231;28;20064;-58
2023/07/21 11:42:08;;;;;;;3.50;1.13;;;;;;;24.41;34.94;96765.03;5060064;28;20051;-57
2023/07/21 11:44:35;;;;;;;2.90;1.25;;;;;;;23.31;36.81;96768.84;5059353;28;20048;-57
2023/07/21 11:47:10;;;;;;;2.92;1.20;;;;;;;23.36;36.78;96766.66;5060226;28;20478;-58